Current Conditions
Clear
Conditions



Pressure
1022.92 (hPa) - 30.21 (inHG)
Visibility

10.0 (km) - 6.2 (miles)
   Temperature
18  °C
64°F
10  °C
Dewpoint
60  %
 Humidity
   Wind Speed
23  km/h
12  kts
14  mph
6.3  m/s
   Wind Direction
 50°
North East
   Airport Data
LSMM
Location Meiringen 6 km (3.73 mi)
Metar :LSMM 201420Z 05012KT 010V120 CAVOK 18/10 Q1023 RMK BLU
Fri 20th September 16:20 pm
   Raw Metar Info
Raw METAR is the most common format in the world for the transmission of observational weather data. It is highly standardized through the International Civil Aviation Organization (ICAO), which allows it to be understood throughout most of the world.
   API Info
Data Provided by
https://www.checkwx.com/weather/LSMM
   © Info
CSS/SVG/PHP scripts were developed by weather34.com for use in the weather34 template © 2015-2019

Guide Info provided by Metar-Wikipedia